sensor_id;sensor_type;location;lat;lon;timestamp;pressure;altitude;pressure_sealevel;temperature;humidity
27358;BME280;14831;50.474;7.616;2022-09-09T00:04:58;97410;;;15.5;91.1
27358;BME280;14831;50.474;7.616;2022-09-09T00:10:00;97400;;;15.5;90.9
27358;BME280;14831;50.474;7.616;2022-09-09T00:14:58;97410;;;15.4;91.3
27358;BME280;14831;50.474;7.616;2022-09-09T00:19:59;97400;;;15.3;90.6
27358;BME280;14831;50.474;7.616;2022-09-09T00:25:00;97400;;;15.4;90.4
27358;BME280;14831;50.474;7.616;2022-09-09T00:29:59;97400;;;15.4;90.2
27358;BME280;14831;50.474;7.616;2022-09-09T00:34:59;97400;;;15.4;90.4
27358;BME280;14831;50.474;7.616;2022-09-09T00:39:58;97400;;;15.5;90.5
27358;BME280;14831;50.474;7.616;2022-09-09T00:44:59;97400;;;15.5;90.5
27358;BME280;14831;50.474;7.616;2022-09-09T00:49:59;97400;;;15.4;91.5
27358;BME280;14831;50.474;7.616;2022-09-09T00:55:00;97400;;;15.4;90.2
27358;BME280;14831;50.474;7.616;2022-09-09T00:59:59;97400;;;15.3;90.9
27358;BME280;14831;50.474;7.616;2022-09-09T01:04:59;97410;;;15.3;91.1
27358;BME280;14831;50.474;7.616;2022-09-09T01:09:58;97410;;;15.2;91.9
27358;BME280;14831;50.474;7.616;2022-09-09T01:15:01;97410;;;15.2;92.3
27358;BME280;14831;50.474;7.616;2022-09-09T01:20:02;97400;;;15.1;93.1
27358;BME280;14831;50.474;7.616;2022-09-09T01:25:09;97410;;;15.0;94.3
27358;BME280;14831;50.474;7.616;2022-09-09T01:29:57;97400;;;14.9;94.4
27358;BME280;14831;50.474;7.616;2022-09-09T01:34:58;97400;;;14.9;95.3
27358;BME280;14831;50.474;7.616;2022-09-09T01:39:57;97400;;;14.8;96.3
27358;BME280;14831;50.474;7.616;2022-09-09T01:44:57;97410;;;14.7;96.3
27358;BME280;14831;50.474;7.616;2022-09-09T01:49:58;97420;;;14.7;95.5
27358;BME280;14831;50.474;7.616;2022-09-09T01:54:57;97410;;;14.8;95.7
27358;BME280;14831;50.474;7.616;2022-09-09T02:00:01;97410;;;14.9;95.3
27358;BME280;14831;50.474;7.616;2022-09-09T02:05:00;97410;;;14.9;94.6
27358;BME280;14831;50.474;7.616;2022-09-09T02:09:59;97420;;;15.0;95.2
27358;BME280;14831;50.474;7.616;2022-09-09T02:14:59;97410;;;15.0;95.2
27358;BME280;14831;50.474;7.616;2022-09-09T02:19:59;97410;;;14.9;95.9
27358;BME280;14831;50.474;7.616;2022-09-09T02:24:58;97410;;;14.9;96.2
27358;BME280;14831;50.474;7.616;2022-09-09T02:29:57;97410;;;14.9;96.9
27358;BME280;14831;50.474;7.616;2022-09-09T02:34:58;97410;;;14.9;97.3
27358;BME280;14831;50.474;7.616;2022-09-09T02:39:57;97410;;;14.9;98.1
27358;BME280;14831;50.474;7.616;2022-09-09T02:44:57;97410;;;14.8;98.5
27358;BME280;14831;50.474;7.616;2022-09-09T02:50:01;97400;;;14.8;98.5
27358;BME280;14831;50.474;7.616;2022-09-09T02:54:59;97400;;;14.7;98.5
27358;BME280;14831;50.474;7.616;2022-09-09T02:59:58;97390;;;14.7;98.5
27358;BME280;14831;50.474;7.616;2022-09-09T03:04:57;97390;;;14.7;98.5
27358;BME280;14831;50.474;7.616;2022-09-09T03:09:57;97390;;;14.7;98.4
27358;BME280;14831;50.474;7.616;2022-09-09T03:14:57;97390;;;14.6;98.5
27358;BME280;14831;50.474;7.616;2022-09-09T03:19:57;97390;;;14.7;98.3
27358;BME280;14831;50.474;7.616;2022-09-09T03:24:57;97390;;;14.8;96.6
27358;BME280;14831;50.474;7.616;2022-09-09T03:29:57;97390;;;14.9;96.3
27358;BME280;14831;50.474;7.616;2022-09-09T03:34:57;97400;;;15.0;96.5
27358;BME280;14831;50.474;7.616;2022-09-09T03:39:57;97400;;;15.0;96.8
27358;BME280;14831;50.474;7.616;2022-09-09T03:44:57;97400;;;14.9;96.5
27358;BME280;14831;50.474;7.616;2022-09-09T03:49:58;97410;;;14.9;96.2
27358;BME280;14831;50.474;7.616;2022-09-09T03:54:57;97400;;;14.9;96.1
27358;BME280;14831;50.474;7.616;2022-09-09T03:59:57;97400;;;14.9;96.1
27358;BME280;14831;50.474;7.616;2022-09-09T04:04:57;97410;;;14.9;95.4
27358;BME280;14831;50.474;7.616;2022-09-09T04:09:57;97400;;;14.9;95.2
27358;BME280;14831;50.474;7.616;2022-09-09T04:14:59;97400;;;15.0;95.5
27358;BME280;14831;50.474;7.616;2022-09-09T04:19:57;97400;;;15.0;95.1
27358;BME280;14831;50.474;7.616;2022-09-09T04:24:57;97400;;;15.0;95.6
27358;BME280;14831;50.474;7.616;2022-09-09T04:29:57;97400;;;14.9;95.8
27358;BME280;14831;50.474;7.616;2022-09-09T04:34:58;97410;;;14.9;96.2
27358;BME280;14831;50.474;7.616;2022-09-09T04:39:57;97420;;;14.9;96.6
27358;BME280;14831;50.474;7.616;2022-09-09T04:44:57;97420;;;14.8;96.2
27358;BME280;14831;50.474;7.616;2022-09-09T04:49:58;97430;;;14.8;95.7
27358;BME280;14831;50.474;7.616;2022-09-09T04:54:58;97440;;;14.8;96.0
27358;BME280;14831;50.474;7.616;2022-09-09T04:59:57;97440;;;14.8;96.0
27358;BME280;14831;50.474;7.616;2022-09-09T05:04:57;97440;;;14.8;95.9
27358;BME280;14831;50.474;7.616;2022-09-09T05:09:57;97430;;;14.8;96.1
27358;BME280;14831;50.474;7.616;2022-09-09T05:14:57;97430;;;14.8;96.6
27358;BME280;14831;50.474;7.616;2022-09-09T05:19:57;97440;;;14.8;97.2
27358;BME280;14831;50.474;7.616;2022-09-09T05:24:57;97440;;;14.7;97.8
27358;BME280;14831;50.474;7.616;2022-09-09T05:29:57;97430;;;14.6;98.3
27358;BME280;14831;50.474;7.616;2022-09-09T05:34:57;97430;;;14.6;97.7
27358;BME280;14831;50.474;7.616;2022-09-09T05:39:57;97430;;;14.6;96.8
27358;BME280;14831;50.474;7.616;2022-09-09T05:44:57;97440;;;14.6;97.0
27358;BME280;14831;50.474;7.616;2022-09-09T05:49:58;97440;;;14.7;96.3
27358;BME280;14831;50.474;7.616;2022-09-09T05:54:57;97440;;;14.8;95.9
27358;BME280;14831;50.474;7.616;2022-09-09T05:59:57;97440;;;14.8;95.8
27358;BME280;14831;50.474;7.616;2022-09-09T06:04:57;97440;;;15.0;92.7
27358;BME280;14831;50.474;7.616;2022-09-09T06:09:57;97430;;;15.0;91.1
27358;BME280;14831;50.474;7.616;2022-09-09T06:14:57;97430;;;15.0;93.5
27358;BME280;14831;50.474;7.616;2022-09-09T06:19:57;97430;;;15.1;90.9
27358;BME280;14831;50.474;7.616;2022-09-09T06:24:57;97430;;;15.5;88.3
27358;BME280;14831;50.474;7.616;2022-09-09T06:29:57;97430;;;15.8;88.9
27358;BME280;14831;50.474;7.616;2022-09-09T06:34:57;97420;;;15.7;91.0
27358;BME280;14831;50.474;7.616;2022-09-09T06:39:57;97430;;;15.4;91.3
27358;BME280;14831;50.474;7.616;2022-09-09T06:44:57;97420;;;15.4;92.7
27358;BME280;14831;50.474;7.616;2022-09-09T06:49:59;97420;;;16.0;87.6
27358;BME280;14831;50.474;7.616;2022-09-09T06:54:57;97410;;;16.5;85.5
27358;BME280;14831;50.474;7.616;2022-09-09T06:59:58;97420;;;16.6;85.4
27358;BME280;14831;50.474;7.616;2022-09-09T07:04:57;97410;;;16.9;82.3
27358;BME280;14831;50.474;7.616;2022-09-09T07:09:57;97420;;;16.7;85.0
27358;BME280;14831;50.474;7.616;2022-09-09T07:14:57;97430;;;16.7;86.0
27358;BME280;14831;50.474;7.616;2022-09-09T07:19:58;97430;;;16.4;87.0
27358;BME280;14831;50.474;7.616;2022-09-09T07:24:57;97430;;;16.7;83.1
27358;BME280;14831;50.474;7.616;2022-09-09T07:29:57;97430;;;17.1;82.8
27358;BME280;14831;50.474;7.616;2022-09-09T07:34:57;97440;;;17.2;80.7
27358;BME280;14831;50.474;7.616;2022-09-09T07:39:57;97440;;;16.9;80.9
27358;BME280;14831;50.474;7.616;2022-09-09T07:44:57;97440;;;16.8;82.4
27358;BME280;14831;50.474;7.616;2022-09-09T07:49:58;97450;;;16.6;80.7
27358;BME280;14831;50.474;7.616;2022-09-09T07:54:57;97450;;;16.5;80.4
27358;BME280;14831;50.474;7.616;2022-09-09T07:59:57;97450;;;16.9;74.1
27358;BME280;14831;50.474;7.616;2022-09-09T08:04:57;97440;;;18.0;71.7
27358;BME280;14831;50.474;7.616;2022-09-09T08:09:57;97450;;;17.3;77.3
27358;BME280;14831;50.474;7.616;2022-09-09T08:14:57;97470;;;17.1;76.1
27358;BME280;14831;50.474;7.616;2022-09-09T08:19:57;97460;;;17.2;76.8
27358;BME280;14831;50.474;7.616;2022-09-09T08:24:57;97460;;;17.2;74.0
27358;BME280;14831;50.474;7.616;2022-09-09T08:29:58;97460;;;17.7;74.1
27358;BME280;14831;50.474;7.616;2022-09-09T08:34:57;97450;;;17.9;73.3
27358;BME280;14831;50.474;7.616;2022-09-09T08:39:57;97470;;;17.5;74.4
27358;BME280;14831;50.474;7.616;2022-09-09T08:45:00;97470;;;17.3;76.9
27358;BME280;14831;50.474;7.616;2022-09-09T08:50:08;97470;;;17.7;74.4
27358;BME280;14831;50.474;7.616;2022-09-09T08:54:59;97470;;;17.3;75.4
27358;BME280;14831;50.474;7.616;2022-09-09T08:59:57;97470;;;17.3;72.8
27358;BME280;14831;50.474;7.616;2022-09-09T09:05:00;97480;;;17.4;72.1
27358;BME280;14831;50.474;7.616;2022-09-09T09:10:00;97480;;;17.4;72.5
27358;BME280;14831;50.474;7.616;2022-09-09T09:14:58;97490;;;17.3;70.3
27358;BME280;14831;50.474;7.616;2022-09-09T09:19:57;97480;;;17.6;69.7
27358;BME280;14831;50.474;7.616;2022-09-09T09:25:00;97480;;;17.3;71.8
27358;BME280;14831;50.474;7.616;2022-09-09T09:29:58;97480;;;17.3;69.4
27358;BME280;14831;50.474;7.616;2022-09-09T09:34:58;97480;;;17.2;71.1
27358;BME280;14831;50.474;7.616;2022-09-09T09:40:07;97480;;;17.3;70.2
27358;BME280;14831;50.474;7.616;2022-09-09T09:45:06;97470;;;18.2;66.4
27358;BME280;14831;50.474;7.616;2022-09-09T09:49:58;97480;;;18.8;67.4
27358;BME280;14831;50.474;7.616;2022-09-09T09:54:58;97470;;;18.6;66.9
27358;BME280;14831;50.474;7.616;2022-09-09T10:00:02;97480;;;18.5;68.2
27358;BME280;14831;50.474;7.616;2022-09-09T10:05:02;97470;;;18.4;65.9
27358;BME280;14831;50.474;7.616;2022-09-09T10:09:57;97470;;;18.3;67.6
27358;BME280;14831;50.474;7.616;2022-09-09T10:14:58;97480;;;18.1;68.6
27358;BME280;14831;50.474;7.616;2022-09-09T10:20:00;97470;;;18.2;66.0
27358;BME280;14831;50.474;7.616;2022-09-09T10:25:03;97470;;;18.1;67.4
27358;BME280;14831;50.474;7.616;2022-09-09T10:30:00;97460;;;18.0;66.4
27358;BME280;14831;50.474;7.616;2022-09-09T10:34:58;97470;;;18.0;67.4
27358;BME280;14831;50.474;7.616;2022-09-09T10:39:59;97460;;;18.1;65.6
27358;BME280;14831;50.474;7.616;2022-09-09T10:45:00;97450;;;18.7;65.1
27358;BME280;14831;50.474;7.616;2022-09-09T10:50:04;97440;;;18.7;62.6
27358;BME280;14831;50.474;7.616;2022-09-09T10:54:58;97450;;;18.7;62.5
27358;BME280;14831;50.474;7.616;2022-09-09T10:59:58;97440;;;18.8;62.0
27358;BME280;14831;50.474;7.616;2022-09-09T11:04:58;97440;;;19.5;61.5
27358;BME280;14831;50.474;7.616;2022-09-09T11:09:59;97430;;;20.1;60.9
27358;BME280;14831;50.474;7.616;2022-09-09T11:14:59;97440;;;19.4;66.1
27358;BME280;14831;50.474;7.616;2022-09-09T11:19:58;97430;;;19.1;62.9
27358;BME280;14831;50.474;7.616;2022-09-09T11:24:58;97440;;;19.5;63.4
27358;BME280;14831;50.474;7.616;2022-09-09T11:30:11;97440;;;19.1;63.9
27358;BME280;14831;50.474;7.616;2022-09-09T11:35:00;97440;;;19.1;65.0
27358;BME280;14831;50.474;7.616;2022-09-09T11:40:30;97440;;;18.9;65.3
27358;BME280;14831;50.474;7.616;2022-09-09T11:44:57;97440;;;18.6;65.1
27358;BME280;14831;50.474;7.616;2022-09-09T11:50:07;97440;;;18.5;65.2
27358;BME280;14831;50.474;7.616;2022-09-09T11:54:57;97440;;;18.6;64.7
27358;BME280;14831;50.474;7.616;2022-09-09T11:59:58;97430;;;18.7;62.4
27358;BME280;14831;50.474;7.616;2022-09-09T12:04:59;97420;;;18.8;65.5
27358;BME280;14831;50.474;7.616;2022-09-09T12:09:58;97420;;;18.8;65.4
27358;BME280;14831;50.474;7.616;2022-09-09T12:14:59;97440;;;18.6;66.4
27358;BME280;14831;50.474;7.616;2022-09-09T12:20:00;97430;;;18.5;64.3
27358;BME280;14831;50.474;7.616;2022-09-09T12:24:59;97420;;;18.5;66.6
27358;BME280;14831;50.474;7.616;2022-09-09T12:29:59;97420;;;18.5;63.0
27358;BME280;14831;50.474;7.616;2022-09-09T12:34:58;97420;;;19.2;60.1
27358;BME280;14831;50.474;7.616;2022-09-09T12:39:58;97400;;;19.7;59.9
27358;BME280;14831;50.474;7.616;2022-09-09T12:44:58;97400;;;20.3;51.7
27358;BME280;14831;50.474;7.616;2022-09-09T12:49:58;97390;;;20.3;56.4
27358;BME280;14831;50.474;7.616;2022-09-09T12:54:58;97400;;;19.9;61.2
27358;BME280;14831;50.474;7.616;2022-09-09T13:00:04;97400;;;19.8;59.5
27358;BME280;14831;50.474;7.616;2022-09-09T13:05:05;97390;;;19.9;57.0
27358;BME280;14831;50.474;7.616;2022-09-09T13:09:57;97390;;;19.5;60.6
27358;BME280;14831;50.474;7.616;2022-09-09T13:14:57;97380;;;19.5;56.8
27358;BME280;14831;50.474;7.616;2022-09-09T13:19:57;97380;;;19.6;55.6
27358;BME280;14831;50.474;7.616;2022-09-09T13:24:58;97370;;;19.7;54.4
27358;BME280;14831;50.474;7.616;2022-09-09T13:29:57;97370;;;19.8;57.4
27358;BME280;14831;50.474;7.616;2022-09-09T13:34:58;97360;;;19.8;55.9
27358;BME280;14831;50.474;7.616;2022-09-09T13:39:57;97350;;;19.8;55.8
27358;BME280;14831;50.474;7.616;2022-09-09T13:44:58;97350;;;19.6;59.2
27358;BME280;14831;50.474;7.616;2022-09-09T13:49:58;97350;;;19.5;57.7
27358;BME280;14831;50.474;7.616;2022-09-09T13:54:57;97350;;;19.6;59.7
27358;BME280;14831;50.474;7.616;2022-09-09T13:59:57;97350;;;19.6;60.0
27358;BME280;14831;50.474;7.616;2022-09-09T14:04:57;97350;;;19.5;61.3
27358;BME280;14831;50.474;7.616;2022-09-09T14:09:57;97350;;;19.6;61.0
27358;BME280;14831;50.474;7.616;2022-09-09T14:14:57;97340;;;19.6;62.2
27358;BME280;14831;50.474;7.616;2022-09-09T14:19:58;97330;;;19.6;61.8
27358;BME280;14831;50.474;7.616;2022-09-09T14:24:57;97340;;;19.3;64.0
27358;BME280;14831;50.474;7.616;2022-09-09T14:29:57;97340;;;19.1;63.5
27358;BME280;14831;50.474;7.616;2022-09-09T14:34:57;97340;;;19.0;63.7
27358;BME280;14831;50.474;7.616;2022-09-09T14:39:57;97360;;;18.9;64.0
27358;BME280;14831;50.474;7.616;2022-09-09T14:44:57;97420;;;17.8;88.3
27358;BME280;14831;50.474;7.616;2022-09-09T14:49:58;97450;;;16.5;94.7
27358;BME280;14831;50.474;7.616;2022-09-09T14:54:57;97480;;;15.8;98.5
27358;BME280;14831;50.474;7.616;2022-09-09T14:59:57;97460;;;15.2;98.4
27358;BME280;14831;50.474;7.616;2022-09-09T15:04:57;97470;;;14.8;98.3
27358;BME280;14831;50.474;7.616;2022-09-09T15:09:57;97480;;;14.4;98.3
27358;BME280;14831;50.474;7.616;2022-09-09T15:14:57;97480;;;14.2;98.3
27358;BME280;14831;50.474;7.616;2022-09-09T15:19:57;97480;;;14.1;98.3
27358;BME280;14831;50.474;7.616;2022-09-09T15:24:57;97470;;;14.2;98.3
27358;BME280;14831;50.474;7.616;2022-09-09T15:29:57;97460;;;14.1;98.3
27358;BME280;14831;50.474;7.616;2022-09-09T15:34:58;97470;;;14.0;98.3
27358;BME280;14831;50.474;7.616;2022-09-09T15:39:57;97460;;;14.0;98.3
27358;BME280;14831;50.474;7.616;2022-09-09T15:44:57;97470;;;14.1;98.3
27358;BME280;14831;50.474;7.616;2022-09-09T15:49:58;97460;;;14.1;98.4
27358;BME280;14831;50.474;7.616;2022-09-09T15:54:57;97460;;;14.2;98.4
27358;BME280;14831;50.474;7.616;2022-09-09T15:59:57;97450;;;14.5;98.5
27358;BME280;14831;50.474;7.616;2022-09-09T16:04:57;97450;;;14.6;98.5
27358;BME280;14831;50.474;7.616;2022-09-09T16:09:57;97450;;;14.7;98.5
27358;BME280;14831;50.474;7.616;2022-09-09T16:14:57;97450;;;14.7;98.5
27358;BME280;14831;50.474;7.616;2022-09-09T16:19:57;97460;;;14.8;98.5
27358;BME280;14831;50.474;7.616;2022-09-09T16:24:57;97450;;;14.8;98.5
27358;BME280;14831;50.474;7.616;2022-09-09T16:29:57;97460;;;14.8;98.5
27358;BME280;14831;50.474;7.616;2022-09-09T16:34:58;97450;;;14.7;98.5
27358;BME280;14831;50.474;7.616;2022-09-09T16:39:57;97450;;;14.7;98.5
27358;BME280;14831;50.474;7.616;2022-09-09T16:44:57;97440;;;14.7;98.5
27358;BME280;14831;50.474;7.616;2022-09-09T16:49:58;97450;;;14.7;98.5
27358;BME280;14831;50.474;7.616;2022-09-09T16:54:58;97460;;;14.7;98.4
27358;BME280;14831;50.474;7.616;2022-09-09T16:59:57;97470;;;14.7;98.4
27358;BME280;14831;50.474;7.616;2022-09-09T17:04:58;97480;;;14.7;98.4
27358;BME280;14831;50.474;7.616;2022-09-09T17:09:57;97480;;;14.7;98.4
27358;BME280;14831;50.474;7.616;2022-09-09T17:14:57;97490;;;14.6;98.4
27358;BME280;14831;50.474;7.616;2022-09-09T17:19:57;97480;;;14.6;98.4
27358;BME280;14831;50.474;7.616;2022-09-09T17:24:57;97490;;;14.5;98.4
27358;BME280;14831;50.474;7.616;2022-09-09T17:29:57;97510;;;14.4;98.4
27358;BME280;14831;50.474;7.616;2022-09-09T17:34:57;97510;;;14.4;98.4
27358;BME280;14831;50.474;7.616;2022-09-09T17:39:57;97520;;;14.4;98.4
27358;BME280;14831;50.474;7.616;2022-09-09T17:44:57;97520;;;14.3;98.4
27358;BME280;14831;50.474;7.616;2022-09-09T17:49:58;97520;;;14.2;98.4
27358;BME280;14831;50.474;7.616;2022-09-09T17:54:58;97520;;;14.2;98.3
27358;BME280;14831;50.474;7.616;2022-09-09T17:59:58;97530;;;14.1;98.3
27358;BME280;14831;50.474;7.616;2022-09-09T18:04:57;97520;;;14.0;98.3
27358;BME280;14831;50.474;7.616;2022-09-09T18:09:57;97530;;;14.0;98.3
27358;BME280;14831;50.474;7.616;2022-09-09T18:14:57;97530;;;13.9;98.3
27358;BME280;14831;50.474;7.616;2022-09-09T18:19:57;97540;;;13.9;98.3
27358;BME280;14831;50.474;7.616;2022-09-09T18:24:57;97530;;;13.9;98.3
27358;BME280;14831;50.474;7.616;2022-09-09T18:29:57;97540;;;13.9;98.3
27358;BME280;14831;50.474;7.616;2022-09-09T18:34:57;97550;;;13.9;98.3
27358;BME280;14831;50.474;7.616;2022-09-09T18:39:57;97550;;;13.9;98.3
27358;BME280;14831;50.474;7.616;2022-09-09T18:44:57;97560;;;13.9;98.3
27358;BME280;14831;50.474;7.616;2022-09-09T18:49:58;97560;;;13.9;98.3
27358;BME280;14831;50.474;7.616;2022-09-09T18:54:57;97560;;;13.8;98.3
27358;BME280;14831;50.474;7.616;2022-09-09T18:59:57;97560;;;13.9;98.3
27358;BME280;14831;50.474;7.616;2022-09-09T19:04:58;97570;;;13.9;98.3
27358;BME280;14831;50.474;7.616;2022-09-09T19:09:57;97570;;;13.9;98.3
27358;BME280;14831;50.474;7.616;2022-09-09T19:14:57;97560;;;13.9;98.3
27358;BME280;14831;50.474;7.616;2022-09-09T19:19:58;97550;;;13.9;98.3
27358;BME280;14831;50.474;7.616;2022-09-09T19:24:57;97550;;;13.8;98.3
27358;BME280;14831;50.474;7.616;2022-09-09T19:29:57;97560;;;13.7;98.3
27358;BME280;14831;50.474;7.616;2022-09-09T19:34:58;97560;;;13.6;98.3
27358;BME280;14831;50.474;7.616;2022-09-09T19:39:57;97570;;;13.6;98.3
27358;BME280;14831;50.474;7.616;2022-09-09T19:44:57;97570;;;13.7;98.3
27358;BME280;14831;50.474;7.616;2022-09-09T19:49:58;97570;;;13.7;98.3
27358;BME280;14831;50.474;7.616;2022-09-09T19:54:57;97570;;;13.6;98.3
27358;BME280;14831;50.474;7.616;2022-09-09T19:59:57;97580;;;13.5;98.3
27358;BME280;14831;50.474;7.616;2022-09-09T20:04:57;97590;;;13.5;98.3
27358;BME280;14831;50.474;7.616;2022-09-09T20:09:57;97570;;;13.5;98.3
27358;BME280;14831;50.474;7.616;2022-09-09T20:14:57;97580;;;13.5;98.3
27358;BME280;14831;50.474;7.616;2022-09-09T20:19:57;97600;;;13.4;98.3
27358;BME280;14831;50.474;7.616;2022-09-09T20:24:57;97590;;;13.4;98.3
27358;BME280;14831;50.474;7.616;2022-09-09T20:29:57;97600;;;13.4;98.3
27358;BME280;14831;50.474;7.616;2022-09-09T20:34:57;97600;;;13.4;98.3
27358;BME280;14831;50.474;7.616;2022-09-09T20:39:57;97590;;;13.4;98.3
27358;BME280;14831;50.474;7.616;2022-09-09T20:44:57;97590;;;13.3;98.3
27358;BME280;14831;50.474;7.616;2022-09-09T20:49:58;97590;;;13.4;98.3
27358;BME280;14831;50.474;7.616;2022-09-09T20:54:57;97600;;;13.4;98.3
27358;BME280;14831;50.474;7.616;2022-09-09T20:59:57;97600;;;13.4;98.3
27358;BME280;14831;50.474;7.616;2022-09-09T21:04:57;97590;;;13.4;98.3
27358;BME280;14831;50.474;7.616;2022-09-09T21:09:57;97590;;;13.3;98.3
27358;BME280;14831;50.474;7.616;2022-09-09T21:14:57;97590;;;13.4;98.3
27358;BME280;14831;50.474;7.616;2022-09-09T21:19:57;97600;;;13.4;98.3
27358;BME280;14831;50.474;7.616;2022-09-09T21:24:57;97590;;;13.4;98.3
27358;BME280;14831;50.474;7.616;2022-09-09T21:29:57;97590;;;13.4;98.3
27358;BME280;14831;50.474;7.616;2022-09-09T21:34:57;97590;;;13.4;98.3
27358;BME280;14831;50.474;7.616;2022-09-09T21:39:57;97590;;;13.4;98.3
27358;BME280;14831;50.474;7.616;2022-09-09T21:44:57;97590;;;13.4;98.3
27358;BME280;14831;50.474;7.616;2022-09-09T21:49:58;97580;;;13.4;98.3
27358;BME280;14831;50.474;7.616;2022-09-09T21:54:57;97590;;;13.3;98.3
27358;BME280;14831;50.474;7.616;2022-09-09T21:59:57;97590;;;13.3;98.3
27358;BME280;14831;50.474;7.616;2022-09-09T22:04:57;97590;;;13.2;98.3
27358;BME280;14831;50.474;7.616;2022-09-09T22:09:57;97600;;;13.2;98.3
27358;BME280;14831;50.474;7.616;2022-09-09T22:14:57;97590;;;13.2;98.2
27358;BME280;14831;50.474;7.616;2022-09-09T22:19:59;97590;;;13.2;98.2
27358;BME280;14831;50.474;7.616;2022-09-09T22:24:57;97590;;;13.1;98.2
27358;BME280;14831;50.474;7.616;2022-09-09T22:29:57;97610;;;13.1;98.2
27358;BME280;14831;50.474;7.616;2022-09-09T22:34:58;97600;;;13.1;98.2
27358;BME280;14831;50.474;7.616;2022-09-09T22:39:57;97600;;;13.1;98.2
27358;BME280;14831;50.474;7.616;2022-09-09T22:44:57;97600;;;13.1;98.2
27358;BME280;14831;50.474;7.616;2022-09-09T22:49:58;97600;;;13.1;98.2
27358;BME280;14831;50.474;7.616;2022-09-09T22:54:57;97590;;;13.0;98.2
27358;BME280;14831;50.474;7.616;2022-09-09T22:59:57;97600;;;13.0;98.2
27358;BME280;14831;50.474;7.616;2022-09-09T23:04:57;97590;;;13.0;98.2
27358;BME280;14831;50.474;7.616;2022-09-09T23:09:57;97590;;;13.0;98.2
27358;BME280;14831;50.474;7.616;2022-09-09T23:14:57;97610;;;13.0;98.2
27358;BME280;14831;50.474;7.616;2022-09-09T23:19:57;97600;;;13.0;98.2
27358;BME280;14831;50.474;7.616;2022-09-09T23:24:57;97600;;;13.0;98.2
27358;BME280;14831;50.474;7.616;2022-09-09T23:29:57;97610;;;13.0;98.2
27358;BME280;14831;50.474;7.616;2022-09-09T23:34:57;97610;;;13.0;98.2
27358;BME280;14831;50.474;7.616;2022-09-09T23:39:57;97610;;;13.0;98.2
27358;BME280;14831;50.474;7.616;2022-09-09T23:44:57;97600;;;13.0;98.2
27358;BME280;14831;50.474;7.616;2022-09-09T23:49:58;97610;;;13.0;98.2
27358;BME280;14831;50.474;7.616;2022-09-09T23:54:57;97600;;;13.0;98.2
27358;BME280;14831;50.474;7.616;2022-09-09T23:59:57;97600;;;13.0;98.2
